createdAt,value
2022-10-02T00:00:17.991Z,99957.09
2022-10-02T00:02:24.167Z,100045.56
2022-10-02T00:04:34.260Z,99946.66
2022-10-02T00:06:59.432Z,99877.16
2022-10-02T00:09:03.610Z,99933.97
2022-10-02T00:11:18.028Z,100111.91
2022-10-02T00:13:26.434Z,99910.50
2022-10-02T00:15:31.388Z,99952.09
2022-10-02T00:17:38.089Z,100021.88
2022-10-02T00:19:39.718Z,99993.06
2022-10-02T00:21:44.026Z,99953.88
2022-10-02T00:23:49.138Z,99960.72
2022-10-02T00:26:05.564Z,100097.22
2022-10-02T00:28:07.294Z,99988.41
2022-10-02T00:30:14.475Z,100003.97
2022-10-02T00:32:21.899Z,99988.84
2022-10-02T00:34:30.794Z,100027.63
2022-10-02T00:36:38.501Z,99898.13
2022-10-02T00:38:57.802Z,99932.75
2022-10-02T00:40:59.324Z,99961.53
2022-10-02T00:43:15.263Z,99977.91
2022-10-02T00:45:20.007Z,99986.38
2022-10-02T00:47:50.617Z,99913.81
2022-10-02T00:50:07.370Z,100003.91
2022-10-02T00:52:36.997Z,99951.41
2022-10-02T00:55:15.868Z,100117.78
2022-10-02T00:57:17.485Z,100012.25
2022-10-02T00:59:53.033Z,100002.13
2022-10-02T01:02:00.610Z,100034.28
2022-10-02T01:04:10.065Z,100021.34
2022-10-02T01:06:12.059Z,100038.69
2022-10-02T01:08:14.279Z,99942.91
2022-10-02T01:10:16.541Z,99934.69
2022-10-02T01:12:18.250Z,99924.06
2022-10-02T01:14:20.160Z,100016.25
2022-10-02T01:16:21.847Z,99937.28
2022-10-02T01:18:23.528Z,99971.91
2022-10-02T01:20:41.741Z,99935.41
2022-10-02T01:22:43.307Z,99955.69
2022-10-02T01:24:59.687Z,99976.25
2022-10-02T01:27:01.290Z,99929.38
2022-10-02T01:29:02.976Z,100045.53
2022-10-02T01:31:14.758Z,100026.53
2022-10-02T01:33:17.035Z,100036.50
2022-10-02T01:35:21.158Z,99985.81
2022-10-02T01:37:30.231Z,99975.78
2022-10-02T01:39:32.876Z,99952.63
2022-10-02T01:41:42.018Z,100027.94
2022-10-02T01:43:49.328Z,99978.09
2022-10-02T01:46:12.726Z,99959.91
2022-10-02T01:48:39.915Z,100012.06
2022-10-02T01:51:16.532Z,100028.78
2022-10-02T01:53:33.360Z,99977.56
2022-10-02T01:56:01.284Z,99955.47
2022-10-02T01:58:29.712Z,99927.16
2022-10-02T02:00:50.067Z,99913.31
2022-10-02T02:03:19.374Z,99999.31
2022-10-02T02:05:41.118Z,99961.91
2022-10-02T02:08:03.068Z,99994.00
2022-10-02T02:10:22.591Z,99989.41
2022-10-02T02:12:58.577Z,99888.63
2022-10-02T02:15:06.839Z,99956.88
2022-10-02T02:17:31.302Z,100023.13
2022-10-02T02:19:43.092Z,99980.53
2022-10-02T02:22:11.151Z,99980.34
2022-10-02T02:24:28.188Z,99959.00
2022-10-02T02:26:30.875Z,99970.72
2022-10-02T02:28:35.381Z,99984.53
2022-10-02T02:30:40.257Z,100054.78
2022-10-02T02:32:58.440Z,99987.84
2022-10-02T02:35:10.290Z,99951.81
2022-10-02T02:37:19.162Z,99959.44
2022-10-02T02:39:30.577Z,100023.59
2022-10-02T02:41:39.461Z,99962.34
2022-10-02T02:43:51.320Z,100024.06
2022-10-02T02:45:59.444Z,99986.66
2022-10-02T02:48:08.779Z,99993.63
2022-10-02T02:50:29.283Z,100015.81
2022-10-02T02:52:41.673Z,99978.28
2022-10-02T02:54:49.411Z,99904.59
2022-10-02T02:56:52.682Z,99973.94
2022-10-02T02:59:10.809Z,100026.44
2022-10-02T03:01:13.003Z,99932.56
2022-10-02T03:03:14.916Z,99902.03
2022-10-02T03:05:19.014Z,99963.63
2022-10-02T03:07:20.708Z,99976.06
2022-10-02T03:09:23.711Z,100086.63
2022-10-02T03:11:43.439Z,100047.06
2022-10-02T03:13:57.909Z,100019.28
2022-10-02T03:16:32.632Z,99945.28
2022-10-02T03:18:49.344Z,99939.44
2022-10-02T03:21:24.041Z,99996.66
2022-10-02T03:23:47.488Z,100044.16
2022-10-02T03:25:53.135Z,99992.75
2022-10-02T03:28:12.087Z,100022.38
2022-10-02T03:30:16.090Z,99989.13
2022-10-02T03:32:19.530Z,99989.25
2022-10-02T03:34:22.034Z,99987.13
2022-10-02T03:36:25.376Z,99988.69
2022-10-02T03:38:29.205Z,99928.13
2022-10-02T03:40:31.005Z,100040.78
2022-10-02T03:42:35.420Z,99961.06
2022-10-02T03:44:37.493Z,99971.72
2022-10-02T03:46:39.619Z,100015.34
2022-10-02T03:48:41.450Z,100022.06
2022-10-02T03:50:43.096Z,100013.66
2022-10-02T03:52:45.225Z,99956.94
2022-10-02T03:54:51.043Z,99904.38
2022-10-02T03:57:03.451Z,99896.53
2022-10-02T03:59:14.021Z,99933.66
2022-10-02T04:01:26.970Z,99936.94
2022-10-02T04:03:37.274Z,99922.72
2022-10-02T04:05:45.371Z,99946.09
2022-10-02T04:07:52.970Z,100031.63
2022-10-02T04:09:55.018Z,99965.06
2022-10-02T04:12:01.427Z,99941.47
2022-10-02T04:14:07.135Z,99948.59
2022-10-02T04:16:24.417Z,99953.06
2022-10-02T04:18:50.588Z,99934.59
2022-10-02T04:20:58.610Z,99932.94
2022-10-02T04:23:12.103Z,99940.41
2022-10-02T04:25:24.101Z,99973.09
2022-10-02T04:27:38.411Z,99981.56
2022-10-02T04:30:02.881Z,99936.06
2022-10-02T04:32:26.801Z,99940.34
2022-10-02T04:34:28.403Z,99951.34
2022-10-02T04:36:58.648Z,100002.75
2022-10-02T04:39:12.290Z,99982.09
2022-10-02T04:41:27.457Z,99941.19
2022-10-02T04:43:50.466Z,99907.34
2022-10-02T04:46:03.628Z,100005.63
2022-10-02T04:48:33.066Z,100048.97
2022-10-02T04:50:43.192Z,99943.28
2022-10-02T04:53:13.466Z,100011.09
2022-10-02T04:55:43.908Z,100019.69
2022-10-02T04:58:10.796Z,99894.06
2022-10-02T05:00:18.510Z,99995.28
2022-10-02T05:02:38.861Z,99913.50
2022-10-02T05:05:07.549Z,99929.88
2022-10-02T05:07:46.715Z,99986.09
2022-10-02T05:09:54.412Z,99975.31
2022-10-02T05:12:39.852Z,99907.72
2022-10-02T05:15:04.893Z,99920.56
2022-10-02T05:17:25.152Z,99948.63
2022-10-02T05:19:38.655Z,100007.31
2022-10-02T05:22:01.441Z,100000.94
2022-10-02T05:24:24.400Z,99991.75
2022-10-02T05:26:38.209Z,99975.28
2022-10-02T05:29:00.980Z,99978.25
2022-10-02T05:31:31.673Z,99965.72
2022-10-02T05:33:36.084Z,100035.31
2022-10-02T05:35:38.380Z,99976.19
2022-10-02T05:37:48.555Z,100029.81
2022-10-02T05:40:57.953Z,99976.63
2022-10-02T05:43:14.667Z,99964.53
2022-10-02T05:46:02.654Z,99945.47
2022-10-02T05:48:29.217Z,99873.16
2022-10-02T05:50:35.396Z,99897.66
2022-10-02T05:52:42.725Z,99907.69
2022-10-02T05:55:26.127Z,100039.44
2022-10-02T05:57:33.013Z,99909.81
2022-10-02T05:59:57.220Z,99948.34
2022-10-02T06:02:04.692Z,99832.41
2022-10-02T06:04:20.780Z,99933.88
2022-10-02T06:06:22.959Z,99841.19
2022-10-02T06:08:36.913Z,99869.31
2022-10-02T06:10:46.529Z,99853.59
2022-10-02T06:12:55.779Z,99929.81
2022-10-02T06:15:05.114Z,99919.94
2022-10-02T06:17:12.819Z,99881.28
2022-10-02T06:19:24.716Z,99947.03
2022-10-02T06:21:36.171Z,99901.06
2022-10-02T06:23:43.090Z,99948.91
2022-10-02T06:25:49.906Z,99918.03
2022-10-02T06:28:03.795Z,99887.69
2022-10-02T06:30:17.292Z,99932.69
2022-10-02T06:32:38.664Z,99901.47
2022-10-02T06:34:43.517Z,99932.16
2022-10-02T06:37:19.384Z,99851.50
2022-10-02T06:39:36.228Z,99868.84
2022-10-02T06:41:40.774Z,99896.66
2022-10-02T06:44:02.425Z,99986.44
2022-10-02T06:46:13.029Z,99902.09
2022-10-02T06:48:25.237Z,99912.31
2022-10-02T06:50:30.497Z,99955.75
2022-10-02T06:52:57.910Z,99941.66
2022-10-02T06:55:41.224Z,99919.91
2022-10-02T06:58:12.124Z,99921.31
2022-10-02T07:00:18.389Z,99942.38
2022-10-02T07:02:38.810Z,99938.22
2022-10-02T07:04:55.574Z,99927.66
2022-10-02T07:07:06.040Z,100004.72
2022-10-02T07:09:25.824Z,99995.47
2022-10-02T07:12:17.481Z,99877.50
2022-10-02T07:14:34.269Z,99875.44
2022-10-02T07:16:45.336Z,99904.63
2022-10-02T07:18:52.976Z,99947.66
2022-10-02T07:21:04.129Z,99970.59
2022-10-02T07:23:25.214Z,99948.63
2022-10-02T07:25:48.752Z,99928.81
2022-10-02T07:28:06.162Z,99879.72
2022-10-02T07:30:17.828Z,99982.81
2022-10-02T07:32:34.339Z,99881.00
2022-10-02T07:34:39.795Z,99944.94
2022-10-02T07:36:52.000Z,99938.19
2022-10-02T07:39:21.627Z,99848.97
2022-10-02T07:41:26.063Z,99929.50
2022-10-02T07:43:39.813Z,99901.72
2022-10-02T07:46:00.967Z,99895.47
2022-10-02T07:48:12.422Z,99924.66
2022-10-02T07:50:39.534Z,99776.72
2022-10-02T07:52:44.111Z,99900.44
2022-10-02T07:55:20.664Z,99860.91
2022-10-02T07:57:35.365Z,99882.97
2022-10-02T07:59:43.487Z,99912.97
2022-10-02T08:01:48.690Z,99920.81
2022-10-02T08:03:57.076Z,99787.94
2022-10-02T08:06:00.620Z,99785.56
2022-10-02T08:08:15.429Z,99787.31
2022-10-02T08:10:21.960Z,99877.50
2022-10-02T08:12:37.635Z,99953.09
2022-10-02T08:14:45.432Z,99894.88
2022-10-02T08:16:50.938Z,99883.75
2022-10-02T08:18:55.597Z,99837.38
2022-10-02T08:20:57.836Z,99841.78
2022-10-02T08:23:27.440Z,99851.44
2022-10-02T08:25:36.899Z,99865.25
2022-10-02T08:27:58.455Z,99988.31
2022-10-02T08:30:03.914Z,100011.75
2022-10-02T08:32:09.930Z,100002.94
2022-10-02T08:34:21.020Z,99991.63
2022-10-02T08:36:54.818Z,99943.94
2022-10-02T08:39:05.476Z,99885.94
2022-10-02T08:41:12.812Z,99888.34
2022-10-02T08:43:36.064Z,99866.34
2022-10-02T08:46:02.507Z,100009.03
2022-10-02T08:48:17.011Z,100020.88
2022-10-02T08:50:52.526Z,99890.03
2022-10-02T08:53:08.943Z,99895.16
2022-10-02T08:56:03.417Z,99946.72
2022-10-02T08:58:27.409Z,99970.47
2022-10-02T09:00:40.880Z,99846.44
2022-10-02T09:03:01.143Z,99968.44
2022-10-02T09:05:40.337Z,99989.16
2022-10-02T09:08:08.062Z,99882.75
2022-10-02T09:10:18.373Z,99920.44
2022-10-02T09:12:47.690Z,99937.94
2022-10-02T09:14:55.616Z,99928.03
2022-10-02T09:17:15.125Z,99876.56
2022-10-02T09:19:41.663Z,99849.22
2022-10-02T09:21:43.223Z,99878.41
2022-10-02T09:24:06.566Z,99870.16
2022-10-02T09:26:29.892Z,99881.28
2022-10-02T09:28:50.679Z,99910.03
2022-10-02T09:31:34.943Z,99904.28
2022-10-02T09:33:48.580Z,99893.03
2022-10-02T09:36:14.514Z,99906.94
2022-10-02T09:38:42.722Z,99871.22
2022-10-02T09:41:02.691Z,99881.59
2022-10-02T09:43:10.224Z,99913.59
2022-10-02T09:45:36.624Z,99964.13
2022-10-02T09:48:12.315Z,100003.16
2022-10-02T09:50:42.436Z,100010.84
2022-10-02T09:53:05.776Z,99934.66
2022-10-02T09:55:26.089Z,99930.94
2022-10-02T09:57:46.003Z,99978.75
2022-10-02T10:00:09.526Z,99863.41
2022-10-02T10:02:24.807Z,99877.44
2022-10-02T10:05:05.183Z,99916.53
2022-10-02T10:07:35.158Z,99971.28
2022-10-02T10:10:19.723Z,99956.19
2022-10-02T10:12:24.053Z,99890.84
2022-10-02T10:14:34.647Z,99943.38
2022-10-02T10:16:44.983Z,99876.63
2022-10-02T10:19:14.075Z,99926.00
2022-10-02T10:21:39.688Z,99959.50
2022-10-02T10:23:57.727Z,99838.56
2022-10-02T10:26:16.353Z,99971.72
2022-10-02T10:28:48.740Z,99965.78
2022-10-02T10:31:28.164Z,99880.09
2022-10-02T10:34:14.118Z,99876.94
2022-10-02T10:36:55.020Z,99875.69
2022-10-02T10:39:26.936Z,99993.66
2022-10-02T10:41:28.582Z,99907.59
2022-10-02T10:43:42.020Z,99948.56
2022-10-02T10:46:28.145Z,99869.50
2022-10-02T10:48:48.551Z,99989.41
2022-10-02T10:51:21.909Z,99884.72
2022-10-02T10:53:39.245Z,99856.38
2022-10-02T10:56:09.804Z,99934.63
2022-10-02T10:58:52.911Z,99878.72
2022-10-02T11:03:32.955Z,99944.06
2022-10-02T11:05:56.355Z,99910.13
2022-10-02T11:08:18.371Z,99833.66
2022-10-02T11:10:25.876Z,99910.41
2022-10-02T11:12:57.762Z,99883.53
2022-10-02T11:15:20.819Z,99876.09
2022-10-02T11:18:02.904Z,99912.34
2022-10-02T11:20:20.412Z,99899.19
2022-10-02T11:22:40.091Z,99911.25
2022-10-02T11:25:12.961Z,99915.47
2022-10-02T11:27:25.791Z,99917.47
2022-10-02T11:29:44.180Z,99895.91
2022-10-02T11:32:04.064Z,99861.59
2022-10-02T11:34:32.206Z,99862.41
2022-10-02T11:37:13.611Z,99922.53
2022-10-02T11:39:30.110Z,99862.91
2022-10-02T11:42:00.642Z,99911.56
2022-10-02T11:44:13.616Z,99893.84
2022-10-02T11:46:28.059Z,99949.72
2022-10-02T11:48:33.298Z,99936.19
2022-10-02T11:51:02.905Z,99962.81
2022-10-02T11:53:19.692Z,99880.31
2022-10-02T11:55:44.376Z,99882.03
2022-10-02T11:58:18.130Z,99994.22
2022-10-02T12:00:35.355Z,99979.13
2022-10-02T12:03:16.095Z,99966.38
2022-10-02T12:05:46.123Z,99961.03
2022-10-02T12:08:34.235Z,99957.50
2022-10-02T12:10:59.322Z,99961.63
2022-10-02T12:13:04.545Z,99906.25
2022-10-02T12:15:57.301Z,99966.44
2022-10-02T12:18:18.308Z,99961.19
2022-10-02T12:21:03.956Z,99887.31
2022-10-02T12:23:48.979Z,100003.66
2022-10-02T12:26:21.975Z,99890.22
2022-10-02T12:28:50.508Z,100004.34
2022-10-02T12:31:01.386Z,99945.03
2022-10-02T12:33:08.254Z,99941.56
2022-10-02T12:35:09.765Z,99936.94
2022-10-02T12:37:36.957Z,99968.03
2022-10-02T12:39:47.284Z,99945.63
2022-10-02T12:42:11.668Z,99985.34
2022-10-02T12:44:37.080Z,99931.03
2022-10-02T12:47:00.311Z,99900.78
2022-10-02T12:49:25.302Z,99896.91
2022-10-02T12:51:35.654Z,99983.84
2022-10-02T12:54:17.985Z,99875.63
2022-10-02T12:56:57.681Z,99912.97
2022-10-02T12:59:14.597Z,99937.78
2022-10-02T13:01:50.201Z,99988.31
2022-10-02T13:04:03.654Z,99924.59
2022-10-02T13:06:43.205Z,99936.00
2022-10-02T13:09:02.879Z,99903.75
2022-10-02T13:11:29.289Z,99921.81
2022-10-02T13:13:55.309Z,99952.53
2022-10-02T13:16:21.869Z,99987.88
2022-10-02T13:18:47.847Z,100008.72
2022-10-02T13:21:04.220Z,99962.63
2022-10-02T13:23:32.088Z,99957.47
2022-10-02T13:25:45.854Z,99975.19
2022-10-02T13:27:52.391Z,99991.13
2022-10-02T13:29:54.393Z,100001.88
2022-10-02T13:32:02.210Z,99965.03
2022-10-02T13:34:15.592Z,99930.28
2022-10-02T13:36:39.227Z,99977.81
2022-10-02T13:39:16.017Z,99944.06
2022-10-02T13:41:42.063Z,99990.44
2022-10-02T13:43:55.300Z,99983.47
2022-10-02T13:46:38.674Z,100039.41
2022-10-02T13:49:12.909Z,99915.53
2022-10-02T13:51:43.478Z,100002.03
2022-10-02T13:54:19.084Z,99957.97
2022-10-02T13:56:36.612Z,99902.38
2022-10-02T13:58:56.938Z,99934.25
2022-10-02T14:01:14.617Z,99914.13
2022-10-02T14:03:25.932Z,100034.69
2022-10-02T14:05:57.759Z,99967.81
2022-10-02T14:08:20.884Z,99966.19
2022-10-02T14:10:34.981Z,99959.63
2022-10-02T14:12:45.199Z,99879.84
2022-10-02T14:15:05.382Z,99961.50
2022-10-02T14:17:19.666Z,99894.03
2022-10-02T14:20:03.114Z,99947.38
2022-10-02T14:22:42.187Z,99928.56
2022-10-02T14:25:04.380Z,99975.13
2022-10-02T14:27:22.609Z,99989.47
2022-10-02T14:29:27.122Z,99897.16
2022-10-02T14:31:56.843Z,99979.38
2022-10-02T14:34:08.013Z,99925.03
2022-10-02T14:36:21.582Z,99914.13
2022-10-02T14:38:31.375Z,100019.69
2022-10-02T14:40:55.135Z,99956.69
2022-10-02T14:42:59.385Z,99969.81
2022-10-02T14:45:21.639Z,100035.63
2022-10-02T14:47:29.275Z,100079.34
2022-10-02T14:49:30.792Z,99958.88
2022-10-02T14:52:18.857Z,100086.25
2022-10-02T14:54:39.126Z,100029.91
2022-10-02T14:56:49.739Z,100072.66
2022-10-02T14:59:39.234Z,100037.00
2022-10-02T15:01:53.910Z,99963.63
2022-10-02T15:04:23.643Z,99947.75
2022-10-02T15:06:25.173Z,99972.88
2022-10-02T15:08:33.895Z,99911.34
2022-10-02T15:10:39.402Z,99928.06
2022-10-02T15:13:01.987Z,99960.44
2022-10-02T15:15:28.093Z,99951.22
2022-10-02T15:17:55.259Z,99953.44
2022-10-02T15:20:13.013Z,99949.00
2022-10-02T15:22:25.950Z,99996.75
2022-10-02T15:24:29.583Z,100009.25
2022-10-02T15:26:55.496Z,100116.28
2022-10-02T15:29:12.565Z,100096.28
2022-10-02T15:31:41.866Z,100102.69
2022-10-02T15:33:48.944Z,100004.94
2022-10-02T15:36:19.816Z,99957.66
2022-10-02T15:38:30.349Z,99958.38
2022-10-02T15:40:53.144Z,99981.25
2022-10-02T15:42:58.706Z,100002.34
2022-10-02T15:45:06.184Z,100013.59
2022-10-02T15:47:44.439Z,99976.28
2022-10-02T15:50:04.366Z,99991.97
2022-10-02T15:52:16.409Z,100032.63
2022-10-02T15:54:24.382Z,100034.94
2022-10-02T15:57:11.887Z,100008.94
2022-10-02T15:59:25.698Z,100057.28
2022-10-02T16:01:54.589Z,100086.84
2022-10-02T16:04:05.161Z,100071.19
2022-10-02T16:06:29.358Z,100024.22
2022-10-02T16:08:33.570Z,100011.00
2022-10-02T16:11:06.474Z,100053.00
2022-10-02T16:13:11.051Z,100067.09
2022-10-02T16:15:25.508Z,100090.28
2022-10-02T16:17:55.154Z,100139.09
2022-10-02T16:20:34.177Z,100113.97
2022-10-02T16:22:49.240Z,100092.16
2022-10-02T16:25:16.451Z,100124.75
2022-10-02T16:28:02.367Z,100111.41
2022-10-02T16:30:05.473Z,100109.88
2022-10-02T16:32:36.673Z,100076.59
2022-10-02T16:35:17.182Z,100113.25
2022-10-02T16:37:29.218Z,100107.34
2022-10-02T16:39:41.141Z,100091.75
2022-10-02T16:42:05.085Z,100122.38
2022-10-02T16:44:09.424Z,100180.91
2022-10-02T16:46:16.467Z,100083.28
2022-10-02T16:48:39.571Z,100065.72
2022-10-02T16:51:04.747Z,100056.13
2022-10-02T16:53:15.205Z,100171.09
2022-10-02T16:55:34.283Z,100137.19
2022-10-02T16:57:41.886Z,100127.34
2022-10-02T17:00:09.851Z,100084.72
2022-10-02T17:02:24.016Z,100128.16
2022-10-02T17:04:51.371Z,100131.88
2022-10-02T17:07:00.587Z,100155.28
2022-10-02T17:09:05.854Z,100159.25
2022-10-02T17:11:30.007Z,100150.59
2022-10-02T17:13:42.865Z,100154.22
2022-10-02T17:15:53.809Z,100152.81
2022-10-02T17:18:08.989Z,100198.81
2022-10-02T17:20:39.858Z,100236.78
2022-10-02T17:22:55.527Z,100194.81
2022-10-02T17:25:29.708Z,100142.44
2022-10-02T17:27:34.240Z,100140.19
2022-10-02T17:29:58.607Z,100155.22
2022-10-02T17:32:01.546Z,100188.94
2022-10-02T17:34:20.132Z,100151.06
2022-10-02T17:36:30.181Z,100129.72
2022-10-02T17:38:43.866Z,100116.78
2022-10-02T17:41:06.131Z,100162.91
2022-10-02T17:43:31.474Z,100248.94
2022-10-02T17:45:45.507Z,100222.13
2022-10-02T17:48:14.372Z,100225.44
2022-10-02T17:50:24.266Z,100133.97
2022-10-02T17:52:49.141Z,100142.72
2022-10-02T17:55:21.702Z,100166.72
2022-10-02T17:57:38.984Z,100161.09
2022-10-02T17:59:52.291Z,100144.91
2022-10-02T18:02:13.653Z,100167.19
2022-10-02T18:05:00.277Z,100184.09
2022-10-02T18:07:10.823Z,100152.06
2022-10-02T18:09:39.703Z,100278.84
2022-10-02T18:12:13.688Z,100249.59
2022-10-02T18:14:37.112Z,100175.34
2022-10-02T18:17:00.200Z,100215.63
2022-10-02T18:19:09.779Z,100248.28
2022-10-02T18:21:14.327Z,100205.91
2022-10-02T18:23:45.054Z,100146.81
2022-10-02T18:26:06.366Z,100213.88
2022-10-02T18:28:40.878Z,100201.91
2022-10-02T18:31:07.132Z,100209.06
2022-10-02T18:33:25.571Z,100210.50
2022-10-02T18:35:51.807Z,100193.19
2022-10-02T18:37:57.436Z,100245.47
2022-10-02T18:40:25.460Z,100126.47
2022-10-02T18:42:40.037Z,100171.91
2022-10-02T18:45:00.199Z,100157.59
2022-10-02T18:47:04.553Z,100290.22
2022-10-02T18:49:14.868Z,100280.81
2022-10-02T18:51:16.644Z,100201.41
2022-10-02T18:53:43.511Z,100161.50
2022-10-02T18:56:03.684Z,100177.16
2022-10-02T18:58:32.884Z,100221.75
2022-10-02T19:01:00.408Z,100205.06
2022-10-02T19:03:39.262Z,100298.16
2022-10-02T19:06:10.171Z,100259.97
2022-10-02T19:08:54.800Z,100217.47
2022-10-02T19:10:56.835Z,100211.56
2022-10-02T19:13:17.945Z,100235.56
2022-10-02T19:15:29.601Z,100231.41
2022-10-02T19:17:32.636Z,100269.63
2022-10-02T19:19:35.416Z,100295.19
2022-10-02T19:21:38.097Z,100298.09
2022-10-02T19:23:53.513Z,100307.44
2022-10-02T19:25:58.067Z,100311.72
2022-10-02T19:28:02.828Z,100263.81
2022-10-02T19:30:21.411Z,100294.88
2022-10-02T19:32:32.475Z,100351.59
2022-10-02T19:34:34.702Z,100338.94
2022-10-02T19:36:50.076Z,100360.09
2022-10-02T19:39:02.581Z,100358.53
2022-10-02T19:41:11.602Z,100340.19
2022-10-02T19:43:24.475Z,100365.75
2022-10-02T19:45:28.935Z,100374.50
2022-10-02T19:47:42.569Z,100388.78
2022-10-02T19:49:47.925Z,100372.72
2022-10-02T19:51:50.992Z,100357.00
2022-10-02T19:54:17.456Z,100369.75
2022-10-02T19:56:26.403Z,100391.88
2022-10-02T19:58:40.550Z,100383.72
2022-10-02T20:00:42.329Z,100379.13
2022-10-02T20:02:47.291Z,100404.16
2022-10-02T20:04:50.717Z,100389.25
2022-10-02T20:06:56.816Z,100378.66
2022-10-02T20:09:05.953Z,100401.09
2022-10-02T20:11:33.006Z,100392.41
2022-10-02T20:13:40.259Z,100383.81
2022-10-02T20:16:04.825Z,100379.69
2022-10-02T20:18:07.641Z,100368.47
2022-10-02T20:20:16.710Z,100400.09
2022-10-02T20:22:34.353Z,100376.06
2022-10-02T20:24:43.676Z,100368.84
2022-10-02T20:26:47.454Z,100392.81
2022-10-02T20:29:17.055Z,100400.97
2022-10-02T20:31:27.225Z,100453.59
2022-10-02T20:33:32.027Z,100436.00
2022-10-02T20:35:45.088Z,100412.44
2022-10-02T20:37:49.812Z,100406.09
2022-10-02T20:40:00.046Z,100370.97
2022-10-02T20:42:09.571Z,100393.53
2022-10-02T20:44:13.144Z,100419.94
2022-10-02T20:46:29.735Z,100439.69
2022-10-02T20:49:07.389Z,100383.00
2022-10-02T20:51:16.239Z,100455.03
2022-10-02T20:53:27.956Z,100427.53
2022-10-02T20:55:45.508Z,100418.81
2022-10-02T20:58:11.277Z,100460.59
2022-10-02T21:00:20.315Z,100467.19
2022-10-02T21:02:47.680Z,100461.94
2022-10-02T21:04:58.150Z,100492.63
2022-10-02T21:07:19.255Z,100472.81
2022-10-02T21:09:56.014Z,100455.56
2022-10-02T21:12:35.490Z,100463.13
2022-10-02T21:14:54.260Z,100405.84
2022-10-02T21:17:14.669Z,100519.06
2022-10-02T21:19:39.068Z,100452.09
2022-10-02T21:22:10.087Z,100495.47
2022-10-02T21:24:39.027Z,100412.94
2022-10-02T21:26:44.060Z,100494.53
2022-10-02T21:29:28.505Z,100464.22
2022-10-02T21:31:52.261Z,100474.34
2022-10-02T21:34:12.034Z,100485.31
2022-10-02T21:36:21.285Z,100499.38
2022-10-02T21:38:44.258Z,100480.47
2022-10-02T21:40:54.967Z,100482.94
2022-10-02T21:43:24.336Z,100481.50
2022-10-02T21:45:44.896Z,100501.47
2022-10-02T21:48:25.580Z,100500.66
2022-10-02T21:51:10.516Z,100482.97
2022-10-02T21:53:30.345Z,100540.44
2022-10-02T21:56:10.281Z,100536.91
2022-10-02T21:58:12.966Z,100538.72
2022-10-02T22:00:21.831Z,100565.91
2022-10-02T22:02:32.107Z,100540.38
2022-10-02T22:04:55.621Z,100558.09
2022-10-02T22:07:00.386Z,100526.91
2022-10-02T22:09:26.896Z,100544.28
2022-10-02T22:11:34.573Z,100542.22
2022-10-02T22:13:38.522Z,100558.91
2022-10-02T22:16:13.719Z,100526.38
2022-10-02T22:18:25.339Z,100542.63
2022-10-02T22:20:32.950Z,100522.97
2022-10-02T22:22:52.914Z,100538.16
2022-10-02T22:25:06.934Z,100523.84
2022-10-02T22:27:45.317Z,100523.88
2022-10-02T22:29:48.428Z,100550.59
2022-10-02T22:32:26.702Z,100549.19
2022-10-02T22:34:36.218Z,100515.19
2022-10-02T22:36:59.154Z,100544.00
2022-10-02T22:39:15.217Z,100519.00
2022-10-02T22:41:24.591Z,100514.47
2022-10-02T22:43:44.439Z,100537.47
2022-10-02T22:46:02.930Z,100595.88
2022-10-02T22:48:43.140Z,100588.44
2022-10-02T22:50:48.157Z,100600.78
2022-10-02T22:52:56.935Z,100572.16
2022-10-02T22:55:03.073Z,100557.72
2022-10-02T22:57:08.576Z,100608.34
2022-10-02T22:59:26.121Z,100544.78
2022-10-02T23:01:42.943Z,100530.66
2022-10-02T23:03:53.712Z,100546.69
2022-10-02T23:06:31.579Z,100505.31
2022-10-02T23:09:03.154Z,100550.34
2022-10-02T23:11:31.277Z,100549.41
2022-10-02T23:13:58.453Z,100616.44
2022-10-02T23:16:39.479Z,100559.78
2022-10-02T23:19:04.945Z,100518.63
2022-10-02T23:21:22.309Z,100553.94
2022-10-02T23:23:32.451Z,100543.59
2022-10-02T23:25:43.191Z,100553.19
2022-10-02T23:28:01.581Z,100546.97
2022-10-02T23:30:13.025Z,100571.06
2022-10-02T23:32:27.572Z,100574.19
2022-10-02T23:34:46.814Z,100574.34
2022-10-02T23:36:56.173Z,100579.72
2022-10-02T23:39:13.915Z,100576.72
2022-10-02T23:41:39.381Z,100598.31
2022-10-02T23:43:52.925Z,100591.16
2022-10-02T23:46:02.487Z,100614.03
2022-10-02T23:48:07.217Z,100611.59
2022-10-02T23:50:36.175Z,100591.84
2022-10-02T23:52:46.340Z,100628.78
2022-10-02T23:55:09.311Z,100613.97
2022-10-02T23:57:33.091Z,100601.72
2022-10-02T23:59:45.315Z,100564.25
